sensor_id;sensor_type;location;lat;lon;timestamp;P1;durP1;ratioP1;P2;durP2;ratioP2
41115;SDS011;26861;51.824;4.682;2023-07-13T00:00:54;2.38;;;0.70;;
41115;SDS011;26861;51.824;4.682;2023-07-13T00:03:21;1.80;;;0.70;;
41115;SDS011;26861;51.824;4.682;2023-07-13T00:05:56;2.03;;;0.75;;
41115;SDS011;26861;51.824;4.682;2023-07-13T00:08:24;2.88;;;0.70;;
41115;SDS011;26861;51.824;4.682;2023-07-13T00:10:51;1.17;;;0.35;;
41115;SDS011;26861;51.824;4.682;2023-07-13T00:13:20;3.03;;;0.88;;
41115;SDS011;26861;51.824;4.682;2023-07-13T00:15:46;2.38;;;0.70;;
41115;SDS011;26861;51.824;4.682;2023-07-13T00:18:12;3.08;;;0.70;;
41115;SDS011;26861;51.824;4.682;2023-07-13T00:20:38;2.08;;;0.90;;
41115;SDS011;26861;51.824;4.682;2023-07-13T00:23:06;1.40;;;0.47;;
41115;SDS011;26861;51.824;4.682;2023-07-13T00:25:32;4.05;;;0.85;;
41115;SDS011;26861;51.824;4.682;2023-07-13T00:27:58;2.47;;;0.70;;
41115;SDS011;26861;51.824;4.682;2023-07-13T00:30:24;3.47;;;0.90;;
41115;SDS011;26861;51.824;4.682;2023-07-13T00:32:51;1.55;;;0.68;;
41115;SDS011;26861;51.824;4.682;2023-07-13T00:35:17;2.88;;;0.55;;
41115;SDS011;26861;51.824;4.682;2023-07-13T00:37:43;2.83;;;0.82;;
41115;SDS011;26861;51.824;4.682;2023-07-13T00:40:10;2.25;;;0.70;;
41115;SDS011;26861;51.824;4.682;2023-07-13T00:42:38;3.13;;;0.93;;
41115;SDS011;26861;51.824;4.682;2023-07-13T00:47:40;1.60;;;0.60;;
41115;SDS011;26861;51.824;4.682;2023-07-13T00:50:07;2.57;;;0.67;;
41115;SDS011;26861;51.824;4.682;2023-07-13T00:52:38;1.75;;;0.50;;
41115;SDS011;26861;51.824;4.682;2023-07-13T00:55:12;3.25;;;0.90;;
41115;SDS011;26861;51.824;4.682;2023-07-13T00:57:40;3.63;;;0.90;;
41115;SDS011;26861;51.824;4.682;2023-07-13T01:00:08;2.53;;;0.70;;
41115;SDS011;26861;51.824;4.682;2023-07-13T01:02:38;1.98;;;0.65;;
41115;SDS011;26861;51.824;4.682;2023-07-13T01:05:10;2.47;;;0.75;;
41115;SDS011;26861;51.824;4.682;2023-07-13T01:07:38;2.67;;;0.82;;
41115;SDS011;26861;51.824;4.682;2023-07-13T01:10:05;2.10;;;0.77;;
41115;SDS011;26861;51.824;4.682;2023-07-13T01:12:31;2.78;;;0.80;;
41115;SDS011;26861;51.824;4.682;2023-07-13T01:14:58;1.38;;;0.70;;
41115;SDS011;26861;51.824;4.682;2023-07-13T01:17:27;1.75;;;0.70;;
41115;SDS011;26861;51.824;4.682;2023-07-13T01:19:54;1.98;;;0.80;;
41115;SDS011;26861;51.824;4.682;2023-07-13T01:22:21;4.22;;;1.00;;
41115;SDS011;26861;51.824;4.682;2023-07-13T01:24:51;2.58;;;0.68;;
41115;SDS011;26861;51.824;4.682;2023-07-13T01:27:21;2.60;;;0.88;;
41115;SDS011;26861;51.824;4.682;2023-07-13T01:29:52;2.20;;;0.70;;
41115;SDS011;26861;51.824;4.682;2023-07-13T01:32:20;1.63;;;0.52;;
41115;SDS011;26861;51.824;4.682;2023-07-13T01:39:45;3.20;;;0.70;;
41115;SDS011;26861;51.824;4.682;2023-07-13T01:42:13;3.63;;;0.90;;
41115;SDS011;26861;51.824;4.682;2023-07-13T01:44:40;1.58;;;0.75;;
41115;SDS011;26861;51.824;4.682;2023-07-13T01:47:06;3.13;;;1.10;;
41115;SDS011;26861;51.824;4.682;2023-07-13T01:49:33;2.80;;;0.90;;
41115;SDS011;26861;51.824;4.682;2023-07-13T01:51:59;4.07;;;0.80;;
41115;SDS011;26861;51.824;4.682;2023-07-13T01:54:25;1.95;;;0.60;;
41115;SDS011;26861;51.824;4.682;2023-07-13T01:56:51;2.25;;;0.77;;
41115;SDS011;26861;51.824;4.682;2023-07-13T01:59:18;3.25;;;1.00;;
41115;SDS011;26861;51.824;4.682;2023-07-13T02:01:44;2.72;;;0.75;;
41115;SDS011;26861;51.824;4.682;2023-07-13T02:04:10;3.70;;;0.77;;
41115;SDS011;26861;51.824;4.682;2023-07-13T02:06:36;2.22;;;0.85;;
41115;SDS011;26861;51.824;4.682;2023-07-13T02:09:02;2.45;;;0.90;;
41115;SDS011;26861;51.824;4.682;2023-07-13T02:11:28;1.95;;;0.70;;
41115;SDS011;26861;51.824;4.682;2023-07-13T02:14:01;3.20;;;1.00;;
41115;SDS011;26861;51.824;4.682;2023-07-13T02:18:54;2.50;;;0.70;;
41115;SDS011;26861;51.824;4.682;2023-07-13T02:21:21;2.13;;;0.63;;
41115;SDS011;26861;51.824;4.682;2023-07-13T02:23:49;3.38;;;0.90;;
41115;SDS011;26861;51.824;4.682;2023-07-13T02:26:15;3.13;;;0.90;;
41115;SDS011;26861;51.824;4.682;2023-07-13T02:28:41;1.80;;;0.68;;
41115;SDS011;26861;51.824;4.682;2023-07-13T02:31:09;3.42;;;1.00;;
41115;SDS011;26861;51.824;4.682;2023-07-13T02:33:37;1.55;;;0.52;;
41115;SDS011;26861;51.824;4.682;2023-07-13T02:36:03;1.50;;;0.75;;
41115;SDS011;26861;51.824;4.682;2023-07-13T02:38:31;2.35;;;0.70;;
41115;SDS011;26861;51.824;4.682;2023-07-13T02:41:02;1.10;;;0.55;;
41115;SDS011;26861;51.824;4.682;2023-07-13T02:43:29;1.02;;;0.47;;
41115;SDS011;26861;51.824;4.682;2023-07-13T02:45:56;2.50;;;0.65;;
41115;SDS011;26861;51.824;4.682;2023-07-13T02:48:21;2.05;;;0.77;;
41115;SDS011;26861;51.824;4.682;2023-07-13T02:50:47;2.60;;;0.77;;
41115;SDS011;26861;51.824;4.682;2023-07-13T02:53:14;3.30;;;1.00;;
41115;SDS011;26861;51.824;4.682;2023-07-13T02:55:40;2.55;;;0.90;;
41115;SDS011;26861;51.824;4.682;2023-07-13T02:58:06;4.20;;;1.02;;
41115;SDS011;26861;51.824;4.682;2023-07-13T03:00:33;2.22;;;1.02;;
41115;SDS011;26861;51.824;4.682;2023-07-13T03:02:59;2.25;;;0.88;;
41115;SDS011;26861;51.824;4.682;2023-07-13T03:05:26;3.63;;;0.80;;
41115;SDS011;26861;51.824;4.682;2023-07-13T03:07:52;3.97;;;0.93;;
41115;SDS011;26861;51.824;4.682;2023-07-13T03:10:18;2.72;;;1.08;;
41115;SDS011;26861;51.824;4.682;2023-07-13T03:12:45;1.73;;;0.82;;
41115;SDS011;26861;51.824;4.682;2023-07-13T03:15:11;3.83;;;0.82;;
41115;SDS011;26861;51.824;4.682;2023-07-13T03:17:37;2.47;;;0.70;;
41115;SDS011;26861;51.824;4.682;2023-07-13T03:20:04;3.28;;;1.00;;
41115;SDS011;26861;51.824;4.682;2023-07-13T03:22:30;2.67;;;0.95;;
41115;SDS011;26861;51.824;4.682;2023-07-13T03:24:57;3.22;;;0.90;;
41115;SDS011;26861;51.824;4.682;2023-07-13T03:27:23;3.33;;;0.88;;
41115;SDS011;26861;51.824;4.682;2023-07-13T03:29:49;2.40;;;1.02;;
41115;SDS011;26861;51.824;4.682;2023-07-13T03:32:15;3.00;;;0.85;;
41115;SDS011;26861;51.824;4.682;2023-07-13T03:34:41;3.22;;;0.82;;
41115;SDS011;26861;51.824;4.682;2023-07-13T03:37:08;2.53;;;1.05;;
41115;SDS011;26861;51.824;4.682;2023-07-13T03:39:34;4.00;;;1.00;;
41115;SDS011;26861;51.824;4.682;2023-07-13T03:42:00;3.25;;;0.88;;
41115;SDS011;26861;51.824;4.682;2023-07-13T03:44:27;2.22;;;0.90;;
41115;SDS011;26861;51.824;4.682;2023-07-13T03:46:53;2.95;;;0.80;;
41115;SDS011;26861;51.824;4.682;2023-07-13T03:49:19;3.17;;;1.02;;
41115;SDS011;26861;51.824;4.682;2023-07-13T03:51:44;3.15;;;0.82;;
41115;SDS011;26861;51.824;4.682;2023-07-13T03:54:10;3.35;;;1.00;;
41115;SDS011;26861;51.824;4.682;2023-07-13T03:56:36;3.47;;;1.10;;
41115;SDS011;26861;51.824;4.682;2023-07-13T03:59:02;4.25;;;1.20;;
41115;SDS011;26861;51.824;4.682;2023-07-13T04:01:27;2.35;;;0.77;;
41115;SDS011;26861;51.824;4.682;2023-07-13T04:03:53;5.15;;;1.15;;
41115;SDS011;26861;51.824;4.682;2023-07-13T04:06:20;2.83;;;0.90;;
41115;SDS011;26861;51.824;4.682;2023-07-13T04:08:51;2.60;;;0.82;;
41115;SDS011;26861;51.824;4.682;2023-07-13T04:11:19;3.13;;;0.90;;
41115;SDS011;26861;51.824;4.682;2023-07-13T04:13:46;3.65;;;1.13;;
41115;SDS011;26861;51.824;4.682;2023-07-13T04:16:13;3.08;;;1.30;;
41115;SDS011;26861;51.824;4.682;2023-07-13T04:18:40;3.65;;;1.20;;
41115;SDS011;26861;51.824;4.682;2023-07-13T04:21:06;4.72;;;1.17;;
41115;SDS011;26861;51.824;4.682;2023-07-13T04:23:33;2.70;;;0.93;;
41115;SDS011;26861;51.824;4.682;2023-07-13T04:25:59;3.88;;;0.90;;
41115;SDS011;26861;51.824;4.682;2023-07-13T04:28:25;4.25;;;1.00;;
41115;SDS011;26861;51.824;4.682;2023-07-13T04:30:52;6.85;;;1.42;;
41115;SDS011;26861;51.824;4.682;2023-07-13T04:33:19;2.58;;;0.98;;
41115;SDS011;26861;51.824;4.682;2023-07-13T04:35:48;3.97;;;1.00;;
41115;SDS011;26861;51.824;4.682;2023-07-13T04:38:19;2.90;;;1.08;;
41115;SDS011;26861;51.824;4.682;2023-07-13T04:40:45;4.30;;;1.10;;
41115;SDS011;26861;51.824;4.682;2023-07-13T04:43:12;3.88;;;1.10;;
41115;SDS011;26861;51.824;4.682;2023-07-13T04:45:37;2.83;;;0.98;;
41115;SDS011;26861;51.824;4.682;2023-07-13T04:48:04;2.10;;;0.90;;
41115;SDS011;26861;51.824;4.682;2023-07-13T04:50:30;6.65;;;1.27;;
41115;SDS011;26861;51.824;4.682;2023-07-13T04:52:56;2.53;;;0.88;;
41115;SDS011;26861;51.824;4.682;2023-07-13T04:55:22;5.45;;;1.52;;
41115;SDS011;26861;51.824;4.682;2023-07-13T04:57:47;3.60;;;1.20;;
41115;SDS011;26861;51.824;4.682;2023-07-13T05:00:13;3.72;;;0.90;;
41115;SDS011;26861;51.824;4.682;2023-07-13T05:02:42;2.90;;;1.00;;
41115;SDS011;26861;51.824;4.682;2023-07-13T05:05:09;2.97;;;1.08;;
41115;SDS011;26861;51.824;4.682;2023-07-13T05:07:35;2.75;;;0.88;;
41115;SDS011;26861;51.824;4.682;2023-07-13T05:10:01;3.35;;;1.30;;
41115;SDS011;26861;51.824;4.682;2023-07-13T05:12:29;5.95;;;1.58;;
41115;SDS011;26861;51.824;4.682;2023-07-13T05:14:55;3.22;;;0.95;;
41115;SDS011;26861;51.824;4.682;2023-07-13T05:17:20;2.60;;;0.98;;
41115;SDS011;26861;51.824;4.682;2023-07-13T05:19:46;5.25;;;1.30;;
41115;SDS011;26861;51.824;4.682;2023-07-13T05:22:12;3.92;;;1.02;;
41115;SDS011;26861;51.824;4.682;2023-07-13T05:24:39;3.05;;;1.20;;
41115;SDS011;26861;51.824;4.682;2023-07-13T05:27:05;4.00;;;1.02;;
41115;SDS011;26861;51.824;4.682;2023-07-13T05:29:31;4.60;;;1.65;;
41115;SDS011;26861;51.824;4.682;2023-07-13T05:31:58;2.80;;;1.15;;
41115;SDS011;26861;51.824;4.682;2023-07-13T05:34:24;5.72;;;1.08;;
41115;SDS011;26861;51.824;4.682;2023-07-13T05:36:50;4.32;;;1.65;;
41115;SDS011;26861;51.824;4.682;2023-07-13T05:39:17;4.20;;;1.30;;
41115;SDS011;26861;51.824;4.682;2023-07-13T05:41:44;3.47;;;0.93;;
41115;SDS011;26861;51.824;4.682;2023-07-13T05:44:10;4.05;;;1.00;;
41115;SDS011;26861;51.824;4.682;2023-07-13T05:46:37;5.38;;;1.10;;
41115;SDS011;26861;51.824;4.682;2023-07-13T05:49:03;3.88;;;1.33;;
41115;SDS011;26861;51.824;4.682;2023-07-13T05:51:29;3.38;;;1.45;;
41115;SDS011;26861;51.824;4.682;2023-07-13T05:53:56;6.95;;;2.42;;
41115;SDS011;26861;51.824;4.682;2023-07-13T05:56:22;4.28;;;1.20;;
41115;SDS011;26861;51.824;4.682;2023-07-13T05:58:48;4.05;;;1.30;;
41115;SDS011;26861;51.824;4.682;2023-07-13T06:01:15;4.20;;;1.02;;
41115;SDS011;26861;51.824;4.682;2023-07-13T06:03:41;3.83;;;1.23;;
41115;SDS011;26861;51.824;4.682;2023-07-13T06:06:09;3.92;;;1.38;;
41115;SDS011;26861;51.824;4.682;2023-07-13T06:08:36;2.63;;;1.15;;
41115;SDS011;26861;51.824;4.682;2023-07-13T06:11:03;4.85;;;1.42;;
41115;SDS011;26861;51.824;4.682;2023-07-13T06:13:37;5.75;;;1.30;;
41115;SDS011;26861;51.824;4.682;2023-07-13T06:16:04;6.75;;;1.88;;
41115;SDS011;26861;51.824;4.682;2023-07-13T06:18:32;6.93;;;1.88;;
41115;SDS011;26861;51.824;4.682;2023-07-13T06:20:59;5.45;;;1.48;;
41115;SDS011;26861;51.824;4.682;2023-07-13T06:23:25;4.38;;;1.77;;
41115;SDS011;26861;51.824;4.682;2023-07-13T06:25:51;6.35;;;1.58;;
41115;SDS011;26861;51.824;4.682;2023-07-13T06:28:18;7.85;;;1.90;;
41115;SDS011;26861;51.824;4.682;2023-07-13T06:30:44;5.75;;;1.83;;
41115;SDS011;26861;51.824;4.682;2023-07-13T06:33:10;6.28;;;1.55;;
41115;SDS011;26861;51.824;4.682;2023-07-13T06:35:35;8.45;;;2.30;;
41115;SDS011;26861;51.824;4.682;2023-07-13T06:38:01;7.43;;;2.17;;
41115;SDS011;26861;51.824;4.682;2023-07-13T06:40:28;7.22;;;2.00;;
41115;SDS011;26861;51.824;4.682;2023-07-13T06:42:55;7.97;;;2.03;;
41115;SDS011;26861;51.824;4.682;2023-07-13T06:45:21;6.35;;;1.63;;
41115;SDS011;26861;51.824;4.682;2023-07-13T06:47:47;9.02;;;1.90;;
41115;SDS011;26861;51.824;4.682;2023-07-13T06:50:25;7.15;;;1.85;;
41115;SDS011;26861;51.824;4.682;2023-07-13T06:52:51;6.38;;;1.55;;
41115;SDS011;26861;51.824;4.682;2023-07-13T06:55:17;5.50;;;1.63;;
41115;SDS011;26861;51.824;4.682;2023-07-13T06:57:44;5.10;;;1.63;;
41115;SDS011;26861;51.824;4.682;2023-07-13T07:00:10;2.92;;;1.33;;
41115;SDS011;26861;51.824;4.682;2023-07-13T07:02:37;6.50;;;1.83;;
41115;SDS011;26861;51.824;4.682;2023-07-13T07:05:03;6.32;;;1.70;;
41115;SDS011;26861;51.824;4.682;2023-07-13T07:07:29;5.43;;;1.45;;
41115;SDS011;26861;51.824;4.682;2023-07-13T07:09:56;6.40;;;1.90;;
41115;SDS011;26861;51.824;4.682;2023-07-13T07:12:22;3.00;;;1.15;;
41115;SDS011;26861;51.824;4.682;2023-07-13T07:14:49;4.38;;;1.40;;
41115;SDS011;26861;51.824;4.682;2023-07-13T07:17:15;5.22;;;1.67;;
41115;SDS011;26861;51.824;4.682;2023-07-13T07:19:42;4.03;;;1.60;;
41115;SDS011;26861;51.824;4.682;2023-07-13T07:22:08;4.75;;;1.50;;
41115;SDS011;26861;51.824;4.682;2023-07-13T07:24:33;5.70;;;1.58;;
41115;SDS011;26861;51.824;4.682;2023-07-13T07:27:00;6.03;;;1.55;;
41115;SDS011;26861;51.824;4.682;2023-07-13T07:29:26;3.78;;;1.17;;
41115;SDS011;26861;51.824;4.682;2023-07-13T07:31:53;4.45;;;1.67;;
41115;SDS011;26861;51.824;4.682;2023-07-13T07:34:19;4.03;;;1.45;;
41115;SDS011;26861;51.824;4.682;2023-07-13T07:36:46;6.68;;;1.50;;
41115;SDS011;26861;51.824;4.682;2023-07-13T07:39:13;3.92;;;1.40;;
41115;SDS011;26861;51.824;4.682;2023-07-13T07:41:39;4.60;;;1.33;;
41115;SDS011;26861;51.824;4.682;2023-07-13T07:44:06;6.80;;;1.58;;
41115;SDS011;26861;51.824;4.682;2023-07-13T07:46:35;4.85;;;1.63;;
41115;SDS011;26861;51.824;4.682;2023-07-13T07:49:01;2.53;;;1.23;;
41115;SDS011;26861;51.824;4.682;2023-07-13T07:51:27;3.97;;;1.45;;
41115;SDS011;26861;51.824;4.682;2023-07-13T07:53:54;7.00;;;1.63;;
41115;SDS011;26861;51.824;4.682;2023-07-13T07:56:20;4.03;;;1.33;;
41115;SDS011;26861;51.824;4.682;2023-07-13T07:58:46;4.53;;;1.55;;
41115;SDS011;26861;51.824;4.682;2023-07-13T08:01:12;6.25;;;1.58;;
41115;SDS011;26861;51.824;4.682;2023-07-13T08:03:38;5.07;;;1.73;;
41115;SDS011;26861;51.824;4.682;2023-07-13T08:06:04;4.03;;;1.67;;
41115;SDS011;26861;51.824;4.682;2023-07-13T08:08:30;2.58;;;1.00;;
41115;SDS011;26861;51.824;4.682;2023-07-13T08:10:56;3.13;;;1.42;;
41115;SDS011;26861;51.824;4.682;2023-07-13T08:13:22;4.68;;;1.50;;
41115;SDS011;26861;51.824;4.682;2023-07-13T08:15:48;2.88;;;0.73;;
41115;SDS011;26861;51.824;4.682;2023-07-13T08:18:15;4.47;;;1.80;;
41115;SDS011;26861;51.824;4.682;2023-07-13T08:20:41;4.00;;;1.50;;
41115;SDS011;26861;51.824;4.682;2023-07-13T08:23:08;5.45;;;1.60;;
41115;SDS011;26861;51.824;4.682;2023-07-13T08:25:35;3.80;;;1.38;;
41115;SDS011;26861;51.824;4.682;2023-07-13T08:28:02;4.80;;;1.27;;
41115;SDS011;26861;51.824;4.682;2023-07-13T08:30:29;4.18;;;1.67;;
41115;SDS011;26861;51.824;4.682;2023-07-13T08:32:55;3.50;;;1.48;;
41115;SDS011;26861;51.824;4.682;2023-07-13T08:35:21;4.45;;;1.80;;
41115;SDS011;26861;51.824;4.682;2023-07-13T08:37:47;4.35;;;1.65;;
41115;SDS011;26861;51.824;4.682;2023-07-13T08:40:13;5.55;;;1.75;;
41115;SDS011;26861;51.824;4.682;2023-07-13T08:42:46;7.05;;;1.85;;
41115;SDS011;26861;51.824;4.682;2023-07-13T08:47:51;4.07;;;1.60;;
41115;SDS011;26861;51.824;4.682;2023-07-13T08:50:30;3.17;;;1.13;;
41115;SDS011;26861;51.824;4.682;2023-07-13T08:53:00;4.20;;;1.38;;
41115;SDS011;26861;51.824;4.682;2023-07-13T08:55:33;4.10;;;1.40;;
41115;SDS011;26861;51.824;4.682;2023-07-13T08:58:09;4.25;;;1.58;;
41115;SDS011;26861;51.824;4.682;2023-07-13T09:00:43;2.22;;;1.30;;
41115;SDS011;26861;51.824;4.682;2023-07-13T09:03:31;5.57;;;1.45;;
41115;SDS011;26861;51.824;4.682;2023-07-13T09:06:06;4.88;;;1.42;;
41115;SDS011;26861;51.824;4.682;2023-07-13T09:09:18;3.28;;;1.55;;
41115;SDS011;26861;51.824;4.682;2023-07-13T09:17:05;1.73;;;1.23;;
41115;SDS011;26861;51.824;4.682;2023-07-13T09:19:36;3.38;;;1.30;;
41115;SDS011;26861;51.824;4.682;2023-07-13T09:22:03;4.65;;;1.33;;
41115;SDS011;26861;51.824;4.682;2023-07-13T09:24:41;3.50;;;1.40;;
41115;SDS011;26861;51.824;4.682;2023-07-13T09:27:27;4.43;;;1.27;;
41115;SDS011;26861;51.824;4.682;2023-07-13T09:30:01;2.97;;;1.20;;
41115;SDS011;26861;51.824;4.682;2023-07-13T09:32:37;2.13;;;1.00;;
41115;SDS011;26861;51.824;4.682;2023-07-13T09:35:09;3.88;;;1.50;;
41115;SDS011;26861;51.824;4.682;2023-07-13T09:37:38;2.13;;;1.25;;
41115;SDS011;26861;51.824;4.682;2023-07-13T09:40:24;4.68;;;1.30;;
41115;SDS011;26861;51.824;4.682;2023-07-13T09:43:20;5.68;;;1.50;;
41115;SDS011;26861;51.824;4.682;2023-07-13T09:45:47;2.80;;;1.25;;
41115;SDS011;26861;51.824;4.682;2023-07-13T09:48:13;3.30;;;1.50;;
41115;SDS011;26861;51.824;4.682;2023-07-13T09:50:41;2.67;;;1.23;;
41115;SDS011;26861;51.824;4.682;2023-07-13T09:53:16;4.40;;;1.27;;
41115;SDS011;26861;51.824;4.682;2023-07-13T09:55:47;6.55;;;1.38;;
41115;SDS011;26861;51.824;4.682;2023-07-13T09:58:24;4.63;;;1.40;;
41115;SDS011;26861;51.824;4.682;2023-07-13T10:00:58;3.53;;;1.40;;
41115;SDS011;26861;51.824;4.682;2023-07-13T10:03:31;7.25;;;1.35;;
41115;SDS011;26861;51.824;4.682;2023-07-13T10:06:22;2.00;;;1.23;;
41115;SDS011;26861;51.824;4.682;2023-07-13T10:08:51;3.70;;;1.60;;
41115;SDS011;26861;51.824;4.682;2023-07-13T10:11:20;2.80;;;1.45;;
41115;SDS011;26861;51.824;4.682;2023-07-13T10:16:22;2.75;;;1.30;;
41115;SDS011;26861;51.824;4.682;2023-07-13T10:18:51;3.30;;;1.20;;
41115;SDS011;26861;51.824;4.682;2023-07-13T10:21:23;4.82;;;1.80;;
41115;SDS011;26861;51.824;4.682;2023-07-13T10:24:11;6.47;;;2.05;;
41115;SDS011;26861;51.824;4.682;2023-07-13T10:26:46;3.77;;;1.03;;
41115;SDS011;26861;51.824;4.682;2023-07-13T10:29:46;4.18;;;1.42;;
41115;SDS011;26861;51.824;4.682;2023-07-13T10:32:15;1.83;;;1.38;;
41115;SDS011;26861;51.824;4.682;2023-07-13T10:34:50;2.80;;;1.38;;
41115;SDS011;26861;51.824;4.682;2023-07-13T10:37:24;4.18;;;1.42;;
41115;SDS011;26861;51.824;4.682;2023-07-13T10:39:54;3.90;;;1.60;;
41115;SDS011;26861;51.824;4.682;2023-07-13T10:42:38;3.88;;;1.40;;
41115;SDS011;26861;51.824;4.682;2023-07-13T10:45:20;3.10;;;1.20;;
41115;SDS011;26861;51.824;4.682;2023-07-13T10:47:48;3.42;;;1.10;;
41115;SDS011;26861;51.824;4.682;2023-07-13T10:50:23;5.50;;;1.70;;
41115;SDS011;26861;51.824;4.682;2023-07-13T10:52:52;5.03;;;1.45;;
41115;SDS011;26861;51.824;4.682;2023-07-13T10:55:30;4.05;;;1.83;;
41115;SDS011;26861;51.824;4.682;2023-07-13T10:58:01;2.60;;;1.38;;
41115;SDS011;26861;51.824;4.682;2023-07-13T11:00:42;2.88;;;1.40;;
41115;SDS011;26861;51.824;4.682;2023-07-13T11:03:15;2.40;;;1.50;;
41115;SDS011;26861;51.824;4.682;2023-07-13T11:08:21;3.25;;;1.33;;
41115;SDS011;26861;51.824;4.682;2023-07-13T11:19:37;2.35;;;1.40;;
41115;SDS011;26861;51.824;4.682;2023-07-13T11:21:32;2.40;;;1.30;;
41115;SDS011;26861;51.824;4.682;2023-07-13T11:24:02;1.98;;;1.05;;
41115;SDS011;26861;51.824;4.682;2023-07-13T11:29:40;3.47;;;1.60;;
41115;SDS011;26861;51.824;4.682;2023-07-13T11:32:26;2.45;;;1.23;;
41115;SDS011;26861;51.824;4.682;2023-07-13T11:34:56;2.08;;;1.27;;
41115;SDS011;26861;51.824;4.682;2023-07-13T11:37:23;3.47;;;1.55;;
41115;SDS011;26861;51.824;4.682;2023-07-13T11:39:51;2.58;;;1.10;;
41115;SDS011;26861;51.824;4.682;2023-07-13T11:42:18;2.10;;;1.20;;
41115;SDS011;26861;51.824;4.682;2023-07-13T11:44:47;3.35;;;1.27;;
41115;SDS011;26861;51.824;4.682;2023-07-13T11:47:19;2.63;;;1.48;;
41115;SDS011;26861;51.824;4.682;2023-07-13T11:49:48;4.95;;;1.70;;
41115;SDS011;26861;51.824;4.682;2023-07-13T11:52:21;2.47;;;1.20;;
41115;SDS011;26861;51.824;4.682;2023-07-13T11:54:59;1.85;;;1.00;;
41115;SDS011;26861;51.824;4.682;2023-07-13T11:57:30;2.50;;;0.90;;
41115;SDS011;26861;51.824;4.682;2023-07-13T12:00:44;1.77;;;0.82;;
41115;SDS011;26861;51.824;4.682;2023-07-13T12:02:53;3.13;;;1.30;;
41115;SDS011;26861;51.824;4.682;2023-07-13T12:05:21;5.03;;;1.48;;
41115;SDS011;26861;51.824;4.682;2023-07-13T12:07:48;2.20;;;1.23;;
41115;SDS011;26861;51.824;4.682;2023-07-13T12:10:19;3.33;;;1.40;;
41115;SDS011;26861;51.824;4.682;2023-07-13T12:12:52;3.90;;;1.35;;
41115;SDS011;26861;51.824;4.682;2023-07-13T12:15:20;4.32;;;1.40;;
41115;SDS011;26861;51.824;4.682;2023-07-13T12:17:48;3.88;;;1.60;;
41115;SDS011;26861;51.824;4.682;2023-07-13T12:20:21;4.13;;;1.52;;
41115;SDS011;26861;51.824;4.682;2023-07-13T12:22:50;2.13;;;1.20;;
41115;SDS011;26861;51.824;4.682;2023-07-13T12:25:18;4.70;;;1.17;;
41115;SDS011;26861;51.824;4.682;2023-07-13T12:27:48;2.08;;;1.10;;
41115;SDS011;26861;51.824;4.682;2023-07-13T12:30:26;3.20;;;1.15;;
41115;SDS011;26861;51.824;4.682;2023-07-13T12:32:59;3.88;;;1.20;;
41115;SDS011;26861;51.824;4.682;2023-07-13T12:35:29;2.85;;;1.20;;
41115;SDS011;26861;51.824;4.682;2023-07-13T12:37:58;3.28;;;1.30;;
41115;SDS011;26861;51.824;4.682;2023-07-13T12:40:26;3.40;;;1.38;;
41115;SDS011;26861;51.824;4.682;2023-07-13T12:43:02;2.90;;;1.00;;
41115;SDS011;26861;51.824;4.682;2023-07-13T12:45:32;2.97;;;1.30;;
41115;SDS011;26861;51.824;4.682;2023-07-13T12:53:29;3.58;;;1.35;;
41115;SDS011;26861;51.824;4.682;2023-07-13T12:58:41;1.85;;;1.13;;
41115;SDS011;26861;51.824;4.682;2023-07-13T13:01:09;2.25;;;1.10;;
41115;SDS011;26861;51.824;4.682;2023-07-13T13:03:38;1.48;;;0.90;;
41115;SDS011;26861;51.824;4.682;2023-07-13T13:08:45;1.52;;;0.90;;
41115;SDS011;26861;51.824;4.682;2023-07-13T13:11:17;2.63;;;1.08;;
41115;SDS011;26861;51.824;4.682;2023-07-13T13:13:45;2.03;;;1.02;;
41115;SDS011;26861;51.824;4.682;2023-07-13T13:16:35;1.15;;;0.95;;
41115;SDS011;26861;51.824;4.682;2023-07-13T13:19:14;1.73;;;0.90;;
41115;SDS011;26861;51.824;4.682;2023-07-13T13:21:42;2.17;;;0.90;;
41115;SDS011;26861;51.824;4.682;2023-07-13T13:24:17;2.83;;;0.95;;
41115;SDS011;26861;51.824;4.682;2023-07-13T13:26:46;2.70;;;1.10;;
41115;SDS011;26861;51.824;4.682;2023-07-13T13:29:17;2.85;;;1.10;;
41115;SDS011;26861;51.824;4.682;2023-07-13T13:31:45;1.95;;;1.08;;
41115;SDS011;26861;51.824;4.682;2023-07-13T13:34:13;2.40;;;0.95;;
41115;SDS011;26861;51.824;4.682;2023-07-13T13:36:41;3.88;;;1.20;;
41115;SDS011;26861;51.824;4.682;2023-07-13T13:39:19;1.60;;;0.80;;
41115;SDS011;26861;51.824;4.682;2023-07-13T13:41:48;1.43;;;0.77;;
41115;SDS011;26861;51.824;4.682;2023-07-13T13:44:16;1.30;;;0.80;;
41115;SDS011;26861;51.824;4.682;2023-07-13T13:46:47;2.08;;;0.95;;
41115;SDS011;26861;51.824;4.682;2023-07-13T13:49:16;0.93;;;0.80;;
41115;SDS011;26861;51.824;4.682;2023-07-13T13:51:46;2.33;;;0.82;;
41115;SDS011;26861;51.824;4.682;2023-07-13T13:54:13;3.15;;;0.88;;
41115;SDS011;26861;51.824;4.682;2023-07-13T13:56:42;1.40;;;0.90;;
41115;SDS011;26861;51.824;4.682;2023-07-13T13:59:09;1.40;;;0.85;;
41115;SDS011;26861;51.824;4.682;2023-07-13T14:01:36;1.27;;;0.70;;
41115;SDS011;26861;51.824;4.682;2023-07-13T14:04:04;1.08;;;0.60;;
41115;SDS011;26861;51.824;4.682;2023-07-13T14:06:31;2.28;;;0.80;;
41115;SDS011;26861;51.824;4.682;2023-07-13T14:08:59;3.65;;;0.80;;
41115;SDS011;26861;51.824;4.682;2023-07-13T14:11:26;1.63;;;1.08;;
41115;SDS011;26861;51.824;4.682;2023-07-13T14:13:56;2.13;;;0.88;;
41115;SDS011;26861;51.824;4.682;2023-07-13T14:16:29;2.17;;;1.02;;
41115;SDS011;26861;51.824;4.682;2023-07-13T14:18:57;3.03;;;1.00;;
41115;SDS011;26861;51.824;4.682;2023-07-13T14:21:26;1.88;;;0.73;;
41115;SDS011;26861;51.824;4.682;2023-07-13T14:23:53;4.03;;;1.20;;
41115;SDS011;26861;51.824;4.682;2023-07-13T14:26:23;2.42;;;0.90;;
41115;SDS011;26861;51.824;4.682;2023-07-13T14:28:52;2.40;;;1.25;;
41115;SDS011;26861;51.824;4.682;2023-07-13T14:31:20;3.38;;;1.30;;
41115;SDS011;26861;51.824;4.682;2023-07-13T14:33:47;2.22;;;1.10;;
41115;SDS011;26861;51.824;4.682;2023-07-13T14:39:01;2.28;;;1.15;;
41115;SDS011;26861;51.824;4.682;2023-07-13T14:41:36;3.28;;;1.30;;
41115;SDS011;26861;51.824;4.682;2023-07-13T14:44:07;3.70;;;1.52;;
41115;SDS011;26861;51.824;4.682;2023-07-13T14:46:38;2.47;;;1.10;;
41115;SDS011;26861;51.824;4.682;2023-07-13T14:51:39;4.03;;;1.20;;
41115;SDS011;26861;51.824;4.682;2023-07-13T14:54:05;3.47;;;0.90;;
41115;SDS011;26861;51.824;4.682;2023-07-13T14:56:33;2.17;;;1.00;;
41115;SDS011;26861;51.824;4.682;2023-07-13T14:59:00;2.83;;;1.05;;
41115;SDS011;26861;51.824;4.682;2023-07-13T15:01:26;2.72;;;1.17;;
41115;SDS011;26861;51.824;4.682;2023-07-13T15:03:53;3.40;;;1.42;;
41115;SDS011;26861;51.824;4.682;2023-07-13T15:06:20;1.80;;;1.20;;
41115;SDS011;26861;51.824;4.682;2023-07-13T15:08:49;1.88;;;1.08;;
41115;SDS011;26861;51.824;4.682;2023-07-13T15:11:16;4.03;;;1.42;;
41115;SDS011;26861;51.824;4.682;2023-07-13T15:13:43;1.10;;;0.88;;
41115;SDS011;26861;51.824;4.682;2023-07-13T15:16:17;3.58;;;1.40;;
41115;SDS011;26861;51.824;4.682;2023-07-13T15:18:49;2.33;;;1.15;;
41115;SDS011;26861;51.824;4.682;2023-07-13T15:21:19;2.33;;;1.00;;
41115;SDS011;26861;51.824;4.682;2023-07-13T15:23:48;3.72;;;1.23;;
41115;SDS011;26861;51.824;4.682;2023-07-13T15:26:15;2.45;;;1.20;;
41115;SDS011;26861;51.824;4.682;2023-07-13T15:28:44;2.22;;;1.05;;
41115;SDS011;26861;51.824;4.682;2023-07-13T15:31:20;3.13;;;1.10;;
41115;SDS011;26861;51.824;4.682;2023-07-13T15:33:49;2.08;;;1.10;;
41115;SDS011;26861;51.824;4.682;2023-07-13T15:36:20;2.00;;;0.88;;
41115;SDS011;26861;51.824;4.682;2023-07-13T15:38:48;3.58;;;1.20;;
41115;SDS011;26861;51.824;4.682;2023-07-13T15:41:17;3.63;;;1.10;;
41115;SDS011;26861;51.824;4.682;2023-07-13T15:43:49;4.45;;;1.27;;
41115;SDS011;26861;51.824;4.682;2023-07-13T15:46:20;1.83;;;1.00;;
41115;SDS011;26861;51.824;4.682;2023-07-13T15:48:49;2.33;;;1.08;;